sensor_id;sensor_type;location;lat;lon;timestamp;P1;durP1;ratioP1;P2;durP2;ratioP2
22111;SDS011;11222;50.872;4.312;2023-01-29T00:01:04;55.60;;;30.23;;
22111;SDS011;11222;50.872;4.312;2023-01-29T00:03:31;55.03;;;30.65;;
22111;SDS011;11222;50.872;4.312;2023-01-29T00:05:57;61.72;;;32.45;;
22111;SDS011;11222;50.872;4.312;2023-01-29T00:08:24;54.33;;;30.10;;
22111;SDS011;11222;50.872;4.312;2023-01-29T00:10:50;53.40;;;29.73;;
22111;SDS011;11222;50.872;4.312;2023-01-29T00:13:16;55.75;;;30.15;;
22111;SDS011;11222;50.872;4.312;2023-01-29T00:15:42;58.42;;;31.00;;
22111;SDS011;11222;50.872;4.312;2023-01-29T00:18:17;62.10;;;32.20;;
22111;SDS011;11222;50.872;4.312;2023-01-29T00:20:42;56.70;;;31.60;;
22111;SDS011;11222;50.872;4.312;2023-01-29T00:23:08;55.40;;;30.42;;
22111;SDS011;11222;50.872;4.312;2023-01-29T00:25:34;57.03;;;31.38;;
22111;SDS011;11222;50.872;4.312;2023-01-29T00:27:59;57.17;;;31.60;;
22111;SDS011;11222;50.872;4.312;2023-01-29T00:30:25;56.65;;;31.45;;
22111;SDS011;11222;50.872;4.312;2023-01-29T00:32:51;53.35;;;29.60;;
22111;SDS011;11222;50.872;4.312;2023-01-29T00:35:18;56.33;;;30.30;;
22111;SDS011;11222;50.872;4.312;2023-01-29T00:37:43;55.55;;;30.52;;
22111;SDS011;11222;50.872;4.312;2023-01-29T00:40:09;58.70;;;30.80;;
22111;SDS011;11222;50.872;4.312;2023-01-29T00:42:35;58.33;;;30.58;;
22111;SDS011;11222;50.872;4.312;2023-01-29T00:45:19;57.40;;;30.20;;
22111;SDS011;11222;50.872;4.312;2023-01-29T00:47:45;52.60;;;30.48;;
22111;SDS011;11222;50.872;4.312;2023-01-29T00:50:11;56.78;;;31.85;;
22111;SDS011;11222;50.872;4.312;2023-01-29T00:52:37;57.40;;;32.00;;
22111;SDS011;11222;50.872;4.312;2023-01-29T00:55:06;56.70;;;31.75;;
22111;SDS011;11222;50.872;4.312;2023-01-29T00:57:33;58.13;;;32.35;;
22111;SDS011;11222;50.872;4.312;2023-01-29T01:00:00;54.92;;;30.83;;
22111;SDS011;11222;50.872;4.312;2023-01-29T01:02:27;53.05;;;30.67;;
22111;SDS011;11222;50.872;4.312;2023-01-29T01:05:12;61.00;;;32.58;;
22111;SDS011;11222;50.872;4.312;2023-01-29T01:07:46;61.70;;;30.95;;
22111;SDS011;11222;50.872;4.312;2023-01-29T01:15:23;58.88;;;32.55;;
22111;SDS011;11222;50.872;4.312;2023-01-29T01:17:55;62.28;;;32.35;;
22111;SDS011;11222;50.872;4.312;2023-01-29T01:20:24;58.40;;;31.80;;
22111;SDS011;11222;50.872;4.312;2023-01-29T01:22:52;55.55;;;30.83;;
22111;SDS011;11222;50.872;4.312;2023-01-29T01:25:18;62.10;;;32.95;;
22111;SDS011;11222;50.872;4.312;2023-01-29T01:27:45;59.63;;;32.08;;
22111;SDS011;11222;50.872;4.312;2023-01-29T01:30:14;57.95;;;32.15;;
22111;SDS011;11222;50.872;4.312;2023-01-29T01:32:41;60.67;;;31.85;;
22111;SDS011;11222;50.872;4.312;2023-01-29T01:35:08;57.58;;;31.67;;
22111;SDS011;11222;50.872;4.312;2023-01-29T01:37:34;58.80;;;32.45;;
22111;SDS011;11222;50.872;4.312;2023-01-29T01:40:03;61.75;;;30.70;;
22111;SDS011;11222;50.872;4.312;2023-01-29T01:42:36;62.10;;;30.67;;
22111;SDS011;11222;50.872;4.312;2023-01-29T01:45:03;57.83;;;31.48;;
22111;SDS011;11222;50.872;4.312;2023-01-29T01:47:42;61.88;;;32.30;;
22111;SDS011;11222;50.872;4.312;2023-01-29T01:50:33;60.15;;;31.92;;
22111;SDS011;11222;50.872;4.312;2023-01-29T01:53:09;64.13;;;31.65;;
22111;SDS011;11222;50.872;4.312;2023-01-29T01:55:45;62.00;;;32.25;;
22111;SDS011;11222;50.872;4.312;2023-01-29T01:58:23;63.00;;;32.78;;
22111;SDS011;11222;50.872;4.312;2023-01-29T02:01:11;60.47;;;32.33;;
22111;SDS011;11222;50.872;4.312;2023-01-29T02:03:41;58.53;;;32.38;;
22111;SDS011;11222;50.872;4.312;2023-01-29T02:06:34;60.47;;;32.55;;
22111;SDS011;11222;50.872;4.312;2023-01-29T02:09:24;59.20;;;32.25;;
22111;SDS011;11222;50.872;4.312;2023-01-29T02:12:18;61.10;;;33.47;;
22111;SDS011;11222;50.872;4.312;2023-01-29T02:14:45;61.20;;;32.30;;
22111;SDS011;11222;50.872;4.312;2023-01-29T02:17:13;58.55;;;31.67;;
22111;SDS011;11222;50.872;4.312;2023-01-29T02:19:44;58.25;;;32.47;;
22111;SDS011;11222;50.872;4.312;2023-01-29T02:22:28;59.38;;;31.75;;
22111;SDS011;11222;50.872;4.312;2023-01-29T02:26:03;58.63;;;32.33;;
22111;SDS011;11222;50.872;4.312;2023-01-29T02:28:15;59.38;;;32.78;;
22111;SDS011;11222;50.872;4.312;2023-01-29T02:31:11;56.35;;;30.58;;
22111;SDS011;11222;50.872;4.312;2023-01-29T02:33:51;61.58;;;31.02;;
22111;SDS011;11222;50.872;4.312;2023-01-29T02:36:55;58.45;;;31.92;;
22111;SDS011;11222;50.872;4.312;2023-01-29T02:39:56;59.58;;;32.17;;
22111;SDS011;11222;50.872;4.312;2023-01-29T02:42:52;55.97;;;31.38;;
22111;SDS011;11222;50.872;4.312;2023-01-29T02:45:31;63.78;;;32.25;;
22111;SDS011;11222;50.872;4.312;2023-01-29T02:48:21;57.58;;;31.52;;
22111;SDS011;11222;50.872;4.312;2023-01-29T02:56:06;57.80;;;30.77;;
22111;SDS011;11222;50.872;4.312;2023-01-29T02:58:42;57.50;;;31.00;;
22111;SDS011;11222;50.872;4.312;2023-01-29T03:04:26;59.45;;;30.35;;
22111;SDS011;11222;50.872;4.312;2023-01-29T03:09:32;58.05;;;31.67;;
22111;SDS011;11222;50.872;4.312;2023-01-29T03:12:04;59.93;;;31.50;;
22111;SDS011;11222;50.872;4.312;2023-01-29T03:14:52;58.22;;;31.92;;
22111;SDS011;11222;50.872;4.312;2023-01-29T03:17:39;57.70;;;31.30;;
22111;SDS011;11222;50.872;4.312;2023-01-29T03:20:13;56.65;;;31.15;;
22111;SDS011;11222;50.872;4.312;2023-01-29T03:22:43;56.10;;;30.73;;
22111;SDS011;11222;50.872;4.312;2023-01-29T03:25:12;59.30;;;31.20;;
22111;SDS011;11222;50.872;4.312;2023-01-29T03:28:00;56.33;;;30.48;;
22111;SDS011;11222;50.872;4.312;2023-01-29T03:30:51;60.80;;;32.42;;
22111;SDS011;11222;50.872;4.312;2023-01-29T03:33:39;61.22;;;31.35;;
22111;SDS011;11222;50.872;4.312;2023-01-29T03:36:30;62.20;;;31.73;;
22111;SDS011;11222;50.872;4.312;2023-01-29T03:39:06;60.70;;;34.15;;
22111;SDS011;11222;50.872;4.312;2023-01-29T03:41:36;67.80;;;35.78;;
22111;SDS011;11222;50.872;4.312;2023-01-29T03:44:16;62.15;;;31.90;;
22111;SDS011;11222;50.872;4.312;2023-01-29T03:46:55;62.47;;;31.38;;
22111;SDS011;11222;50.872;4.312;2023-01-29T03:49:56;62.08;;;32.15;;
22111;SDS011;11222;50.872;4.312;2023-01-29T03:52:40;59.83;;;32.58;;
22111;SDS011;11222;50.872;4.312;2023-01-29T03:55:23;60.50;;;32.30;;
22111;SDS011;11222;50.872;4.312;2023-01-29T03:58:19;62.08;;;33.38;;
22111;SDS011;11222;50.872;4.312;2023-01-29T04:00:50;57.15;;;31.77;;
22111;SDS011;11222;50.872;4.312;2023-01-29T04:06:10;62.72;;;31.50;;
22111;SDS011;11222;50.872;4.312;2023-01-29T04:08:46;61.70;;;32.47;;
22111;SDS011;11222;50.872;4.312;2023-01-29T04:11:19;59.67;;;32.33;;
22111;SDS011;11222;50.872;4.312;2023-01-29T04:13:47;59.40;;;32.38;;
22111;SDS011;11222;50.872;4.312;2023-01-29T04:16:22;60.28;;;31.77;;
22111;SDS011;11222;50.872;4.312;2023-01-29T04:18:55;61.58;;;31.88;;
22111;SDS011;11222;50.872;4.312;2023-01-29T04:21:21;59.55;;;31.90;;
22111;SDS011;11222;50.872;4.312;2023-01-29T04:23:48;60.97;;;31.25;;
22111;SDS011;11222;50.872;4.312;2023-01-29T04:34:47;59.15;;;31.80;;
22111;SDS011;11222;50.872;4.312;2023-01-29T04:43:47;53.67;;;30.25;;
22111;SDS011;11222;50.872;4.312;2023-01-29T04:47:03;60.55;;;30.67;;
22111;SDS011;11222;50.872;4.312;2023-01-29T04:51:51;61.40;;;31.05;;
22111;SDS011;11222;50.872;4.312;2023-01-29T04:59:35;54.85;;;29.63;;
22111;SDS011;11222;50.872;4.312;2023-01-29T05:02:06;60.22;;;31.27;;
22111;SDS011;11222;50.872;4.312;2023-01-29T05:04:35;58.55;;;30.90;;
22111;SDS011;11222;50.872;4.312;2023-01-29T05:07:04;57.28;;;30.27;;
22111;SDS011;11222;50.872;4.312;2023-01-29T05:09:34;54.03;;;28.65;;
22111;SDS011;11222;50.872;4.312;2023-01-29T05:12:02;57.15;;;29.27;;
22111;SDS011;11222;50.872;4.312;2023-01-29T05:14:31;56.75;;;30.15;;
22111;SDS011;11222;50.872;4.312;2023-01-29T05:16:58;54.78;;;28.70;;
22111;SDS011;11222;50.872;4.312;2023-01-29T05:19:29;58.85;;;29.80;;
22111;SDS011;11222;50.872;4.312;2023-01-29T05:21:54;51.75;;;28.30;;
22111;SDS011;11222;50.872;4.312;2023-01-29T05:24:22;56.50;;;29.30;;
22111;SDS011;11222;50.872;4.312;2023-01-29T05:26:50;57.85;;;29.55;;
22111;SDS011;11222;50.872;4.312;2023-01-29T05:29:35;58.55;;;30.38;;
22111;SDS011;11222;50.872;4.312;2023-01-29T05:32:01;60.13;;;29.60;;
22111;SDS011;11222;50.872;4.312;2023-01-29T05:34:28;56.85;;;28.70;;
22111;SDS011;11222;50.872;4.312;2023-01-29T05:36:53;57.85;;;29.00;;
22111;SDS011;11222;50.872;4.312;2023-01-29T05:39:19;59.30;;;29.85;;
22111;SDS011;11222;50.872;4.312;2023-01-29T05:41:45;55.85;;;29.17;;
22111;SDS011;11222;50.872;4.312;2023-01-29T05:44:11;56.72;;;28.70;;
22111;SDS011;11222;50.872;4.312;2023-01-29T05:46:37;58.72;;;30.10;;
22111;SDS011;11222;50.872;4.312;2023-01-29T05:49:03;58.60;;;29.60;;
22111;SDS011;11222;50.872;4.312;2023-01-29T05:51:29;57.58;;;29.55;;
22111;SDS011;11222;50.872;4.312;2023-01-29T05:53:55;58.40;;;29.73;;
22111;SDS011;11222;50.872;4.312;2023-01-29T05:56:21;59.40;;;29.85;;
22111;SDS011;11222;50.872;4.312;2023-01-29T05:58:47;57.08;;;30.42;;
22111;SDS011;11222;50.872;4.312;2023-01-29T06:01:14;59.85;;;29.85;;
22111;SDS011;11222;50.872;4.312;2023-01-29T06:03:41;59.83;;;29.38;;
22111;SDS011;11222;50.872;4.312;2023-01-29T06:06:07;59.65;;;29.50;;
22111;SDS011;11222;50.872;4.312;2023-01-29T06:08:33;59.58;;;30.45;;
22111;SDS011;11222;50.872;4.312;2023-01-29T06:10:59;55.22;;;29.73;;
22111;SDS011;11222;50.872;4.312;2023-01-29T06:13:25;61.95;;;30.83;;
22111;SDS011;11222;50.872;4.312;2023-01-29T06:15:50;60.92;;;29.85;;
22111;SDS011;11222;50.872;4.312;2023-01-29T06:18:16;61.88;;;30.45;;
22111;SDS011;11222;50.872;4.312;2023-01-29T06:20:42;59.63;;;31.17;;
22111;SDS011;11222;50.872;4.312;2023-01-29T06:23:07;63.03;;;30.17;;
22111;SDS011;11222;50.872;4.312;2023-01-29T06:25:33;57.28;;;29.45;;
22111;SDS011;11222;50.872;4.312;2023-01-29T06:27:59;59.03;;;29.85;;
22111;SDS011;11222;50.872;4.312;2023-01-29T06:30:24;62.72;;;29.33;;
22111;SDS011;11222;50.872;4.312;2023-01-29T06:32:54;62.42;;;30.08;;
22111;SDS011;11222;50.872;4.312;2023-01-29T06:35:22;55.28;;;28.02;;
22111;SDS011;11222;50.872;4.312;2023-01-29T06:37:49;57.20;;;27.70;;
22111;SDS011;11222;50.872;4.312;2023-01-29T06:40:14;58.25;;;29.88;;
22111;SDS011;11222;50.872;4.312;2023-01-29T06:42:40;58.90;;;29.42;;
22111;SDS011;11222;50.872;4.312;2023-01-29T06:45:06;55.67;;;28.13;;
22111;SDS011;11222;50.872;4.312;2023-01-29T06:47:32;54.75;;;28.63;;
22111;SDS011;11222;50.872;4.312;2023-01-29T06:49:58;57.15;;;29.38;;
22111;SDS011;11222;50.872;4.312;2023-01-29T06:52:23;56.92;;;29.58;;
22111;SDS011;11222;50.872;4.312;2023-01-29T06:54:52;58.53;;;29.05;;
22111;SDS011;11222;50.872;4.312;2023-01-29T06:57:21;58.92;;;29.88;;
22111;SDS011;11222;50.872;4.312;2023-01-29T06:59:47;55.95;;;28.60;;
22111;SDS011;11222;50.872;4.312;2023-01-29T07:02:13;55.33;;;28.65;;
22111;SDS011;11222;50.872;4.312;2023-01-29T07:04:39;55.15;;;29.50;;
22111;SDS011;11222;50.872;4.312;2023-01-29T07:07:08;53.70;;;27.95;;
22111;SDS011;11222;50.872;4.312;2023-01-29T07:09:38;56.38;;;29.33;;
22111;SDS011;11222;50.872;4.312;2023-01-29T07:12:05;57.25;;;29.48;;
22111;SDS011;11222;50.872;4.312;2023-01-29T07:14:31;57.97;;;30.70;;
22111;SDS011;11222;50.872;4.312;2023-01-29T07:16:56;55.75;;;29.67;;
22111;SDS011;11222;50.872;4.312;2023-01-29T07:19:22;55.13;;;29.63;;
22111;SDS011;11222;50.872;4.312;2023-01-29T07:21:48;59.10;;;30.90;;
22111;SDS011;11222;50.872;4.312;2023-01-29T07:24:13;58.67;;;30.98;;
22111;SDS011;11222;50.872;4.312;2023-01-29T07:26:40;58.90;;;31.15;;
22111;SDS011;11222;50.872;4.312;2023-01-29T07:29:06;58.28;;;30.65;;
22111;SDS011;11222;50.872;4.312;2023-01-29T07:31:31;57.67;;;30.70;;
22111;SDS011;11222;50.872;4.312;2023-01-29T07:33:57;57.25;;;29.80;;
22111;SDS011;11222;50.872;4.312;2023-01-29T07:36:23;57.70;;;31.17;;
22111;SDS011;11222;50.872;4.312;2023-01-29T07:38:49;58.28;;;30.50;;
22111;SDS011;11222;50.872;4.312;2023-01-29T07:41:15;62.15;;;30.98;;
22111;SDS011;11222;50.872;4.312;2023-01-29T07:43:41;56.95;;;30.33;;
22111;SDS011;11222;50.872;4.312;2023-01-29T07:46:08;56.30;;;30.88;;
22111;SDS011;11222;50.872;4.312;2023-01-29T07:48:33;58.50;;;31.67;;
22111;SDS011;11222;50.872;4.312;2023-01-29T07:50:59;57.75;;;30.38;;
22111;SDS011;11222;50.872;4.312;2023-01-29T07:53:26;58.88;;;29.88;;
22111;SDS011;11222;50.872;4.312;2023-01-29T07:55:52;60.35;;;31.50;;
22111;SDS011;11222;50.872;4.312;2023-01-29T07:58:18;60.90;;;30.92;;
22111;SDS011;11222;50.872;4.312;2023-01-29T08:00:43;63.38;;;32.40;;
22111;SDS011;11222;50.872;4.312;2023-01-29T08:03:13;59.85;;;31.63;;
22111;SDS011;11222;50.872;4.312;2023-01-29T08:05:41;61.13;;;32.67;;
22111;SDS011;11222;50.872;4.312;2023-01-29T08:08:07;58.60;;;31.10;;
22111;SDS011;11222;50.872;4.312;2023-01-29T08:10:33;63.00;;;32.65;;
22111;SDS011;11222;50.872;4.312;2023-01-29T08:13:00;61.08;;;30.70;;
22111;SDS011;11222;50.872;4.312;2023-01-29T08:15:27;64.60;;;30.90;;
22111;SDS011;11222;50.872;4.312;2023-01-29T08:17:53;56.50;;;31.52;;
22111;SDS011;11222;50.872;4.312;2023-01-29T08:20:19;59.78;;;31.90;;
22111;SDS011;11222;50.872;4.312;2023-01-29T08:22:46;62.78;;;31.30;;
22111;SDS011;11222;50.872;4.312;2023-01-29T08:25:12;58.80;;;30.25;;
22111;SDS011;11222;50.872;4.312;2023-01-29T08:27:38;57.70;;;30.15;;
22111;SDS011;11222;50.872;4.312;2023-01-29T08:30:05;61.78;;;31.33;;
22111;SDS011;11222;50.872;4.312;2023-01-29T08:32:32;58.95;;;31.08;;
22111;SDS011;11222;50.872;4.312;2023-01-29T08:34:58;58.10;;;31.63;;
22111;SDS011;11222;50.872;4.312;2023-01-29T08:37:23;59.30;;;30.92;;
22111;SDS011;11222;50.872;4.312;2023-01-29T08:39:49;59.97;;;32.00;;
22111;SDS011;11222;50.872;4.312;2023-01-29T08:42:15;57.33;;;31.88;;
22111;SDS011;11222;50.872;4.312;2023-01-29T08:44:40;58.83;;;29.70;;
22111;SDS011;11222;50.872;4.312;2023-01-29T08:47:06;58.10;;;31.40;;
22111;SDS011;11222;50.872;4.312;2023-01-29T08:49:31;57.35;;;30.27;;
22111;SDS011;11222;50.872;4.312;2023-01-29T08:51:57;61.03;;;29.92;;
22111;SDS011;11222;50.872;4.312;2023-01-29T08:54:23;59.35;;;30.77;;
22111;SDS011;11222;50.872;4.312;2023-01-29T08:56:49;60.63;;;30.13;;
22111;SDS011;11222;50.872;4.312;2023-01-29T08:59:15;61.47;;;32.22;;
22111;SDS011;11222;50.872;4.312;2023-01-29T09:01:41;56.38;;;30.45;;
22111;SDS011;11222;50.872;4.312;2023-01-29T09:04:07;60.97;;;32.53;;
22111;SDS011;11222;50.872;4.312;2023-01-29T09:06:32;60.08;;;30.02;;
22111;SDS011;11222;50.872;4.312;2023-01-29T09:08:58;59.22;;;32.08;;
22111;SDS011;11222;50.872;4.312;2023-01-29T09:11:24;57.28;;;29.80;;
22111;SDS011;11222;50.872;4.312;2023-01-29T09:13:49;60.20;;;31.48;;
22111;SDS011;11222;50.872;4.312;2023-01-29T09:16:15;57.47;;;30.52;;
22111;SDS011;11222;50.872;4.312;2023-01-29T09:18:41;59.78;;;31.20;;
22111;SDS011;11222;50.872;4.312;2023-01-29T09:21:06;55.22;;;29.48;;
22111;SDS011;11222;50.872;4.312;2023-01-29T09:23:32;58.30;;;30.67;;
22111;SDS011;11222;50.872;4.312;2023-01-29T09:25:58;59.58;;;32.38;;
22111;SDS011;11222;50.872;4.312;2023-01-29T09:28:23;59.03;;;30.65;;
22111;SDS011;11222;50.872;4.312;2023-01-29T09:30:49;53.38;;;28.63;;
22111;SDS011;11222;50.872;4.312;2023-01-29T09:33:15;57.90;;;31.33;;
22111;SDS011;11222;50.872;4.312;2023-01-29T09:35:41;61.70;;;31.42;;
22111;SDS011;11222;50.872;4.312;2023-01-29T09:38:08;57.05;;;31.48;;
22111;SDS011;11222;50.872;4.312;2023-01-29T09:40:37;55.80;;;30.30;;
22111;SDS011;11222;50.872;4.312;2023-01-29T09:45:44;59.05;;;30.42;;
22111;SDS011;11222;50.872;4.312;2023-01-29T09:48:37;61.83;;;32.03;;
22111;SDS011;11222;50.872;4.312;2023-01-29T09:51:04;54.40;;;29.95;;
22111;SDS011;11222;50.872;4.312;2023-01-29T09:56:11;56.63;;;29.75;;
22111;SDS011;11222;50.872;4.312;2023-01-29T09:58:43;60.05;;;29.33;;
22111;SDS011;11222;50.872;4.312;2023-01-29T10:01:20;56.88;;;29.10;;
22111;SDS011;11222;50.872;4.312;2023-01-29T10:26:56;52.97;;;27.83;;
22111;SDS011;11222;50.872;4.312;2023-01-29T10:29:23;51.35;;;28.00;;
22111;SDS011;11222;50.872;4.312;2023-01-29T10:31:56;51.20;;;26.77;;
22111;SDS011;11222;50.872;4.312;2023-01-29T10:34:40;53.85;;;28.48;;
22111;SDS011;11222;50.872;4.312;2023-01-29T10:37:17;54.22;;;27.70;;
22111;SDS011;11222;50.872;4.312;2023-01-29T10:39:48;54.85;;;27.70;;
22111;SDS011;11222;50.872;4.312;2023-01-29T10:50:17;51.08;;;26.83;;
22111;SDS011;11222;50.872;4.312;2023-01-29T11:01:01;48.08;;;25.23;;
22111;SDS011;11222;50.872;4.312;2023-01-29T11:03:29;45.30;;;23.77;;
22111;SDS011;11222;50.872;4.312;2023-01-29T11:08:23;43.90;;;24.17;;
22111;SDS011;11222;50.872;4.312;2023-01-29T11:13:31;42.15;;;21.70;;
22111;SDS011;11222;50.872;4.312;2023-01-29T11:16:06;41.13;;;22.52;;
22111;SDS011;11222;50.872;4.312;2023-01-29T11:21:19;40.60;;;21.80;;
22111;SDS011;11222;50.872;4.312;2023-01-29T11:23:45;40.00;;;22.10;;
22111;SDS011;11222;50.872;4.312;2023-01-29T11:26:12;40.53;;;22.50;;
22111;SDS011;11222;50.872;4.312;2023-01-29T11:28:43;38.65;;;20.42;;
22111;SDS011;11222;50.872;4.312;2023-01-29T11:31:16;39.83;;;22.30;;
22111;SDS011;11222;50.872;4.312;2023-01-29T11:33:44;38.70;;;20.88;;
22111;SDS011;11222;50.872;4.312;2023-01-29T11:36:21;41.58;;;21.23;;
22111;SDS011;11222;50.872;4.312;2023-01-29T11:44:26;32.67;;;19.20;;
22111;SDS011;11222;50.872;4.312;2023-01-29T11:46:53;33.38;;;18.63;;
22111;SDS011;11222;50.872;4.312;2023-01-29T11:49:21;44.38;;;21.10;;
22111;SDS011;11222;50.872;4.312;2023-01-29T11:51:57;42.22;;;24.60;;
22111;SDS011;11222;50.872;4.312;2023-01-29T11:54:27;39.10;;;21.42;;
22111;SDS011;11222;50.872;4.312;2023-01-29T11:56:56;34.15;;;19.90;;
22111;SDS011;11222;50.872;4.312;2023-01-29T12:02:22;34.70;;;19.05;;
22111;SDS011;11222;50.872;4.312;2023-01-29T12:05:12;31.13;;;18.50;;
22111;SDS011;11222;50.872;4.312;2023-01-29T12:07:44;26.98;;;17.27;;
22111;SDS011;11222;50.872;4.312;2023-01-29T12:13:30;32.15;;;18.58;;
22111;SDS011;11222;50.872;4.312;2023-01-29T12:16:38;33.33;;;19.42;;
22111;SDS011;11222;50.872;4.312;2023-01-29T12:18:52;28.45;;;17.13;;
22111;SDS011;11222;50.872;4.312;2023-01-29T12:21:43;30.02;;;17.80;;
22111;SDS011;11222;50.872;4.312;2023-01-29T12:24:22;27.85;;;17.77;;
22111;SDS011;11222;50.872;4.312;2023-01-29T12:27:11;29.48;;;17.42;;
22111;SDS011;11222;50.872;4.312;2023-01-29T12:30:03;29.17;;;16.80;;
22111;SDS011;11222;50.872;4.312;2023-01-29T12:33:08;30.33;;;18.10;;
22111;SDS011;11222;50.872;4.312;2023-01-29T12:36:00;40.13;;;21.23;;
22111;SDS011;11222;50.872;4.312;2023-01-29T12:38:35;30.17;;;18.55;;
22111;SDS011;11222;50.872;4.312;2023-01-29T12:41:22;31.60;;;17.83;;
22111;SDS011;11222;50.872;4.312;2023-01-29T12:43:58;28.17;;;15.93;;
22111;SDS011;11222;50.872;4.312;2023-01-29T12:46:31;28.67;;;17.25;;
22111;SDS011;11222;50.872;4.312;2023-01-29T12:49:02;30.52;;;17.42;;
22111;SDS011;11222;50.872;4.312;2023-01-29T12:51:35;27.00;;;16.42;;
22111;SDS011;11222;50.872;4.312;2023-01-29T12:54:08;25.75;;;16.05;;
22111;SDS011;11222;50.872;4.312;2023-01-29T12:59:30;31.27;;;17.55;;
22111;SDS011;11222;50.872;4.312;2023-01-29T13:02:11;29.80;;;16.83;;
22111;SDS011;11222;50.872;4.312;2023-01-29T13:04:56;29.75;;;17.17;;
22111;SDS011;11222;50.872;4.312;2023-01-29T13:07:34;30.98;;;17.02;;
22111;SDS011;11222;50.872;4.312;2023-01-29T13:10:08;27.55;;;17.13;;
22111;SDS011;11222;50.872;4.312;2023-01-29T13:12:39;28.00;;;16.65;;
22111;SDS011;11222;50.872;4.312;2023-01-29T13:15:31;26.77;;;16.35;;
22111;SDS011;11222;50.872;4.312;2023-01-29T13:18:06;32.08;;;18.45;;
22111;SDS011;11222;50.872;4.312;2023-01-29T13:20:46;28.42;;;17.15;;
22111;SDS011;11222;50.872;4.312;2023-01-29T13:23:36;31.00;;;17.73;;
22111;SDS011;11222;50.872;4.312;2023-01-29T13:26:04;33.47;;;18.83;;
22111;SDS011;11222;50.872;4.312;2023-01-29T13:28:30;30.65;;;17.73;;
22111;SDS011;11222;50.872;4.312;2023-01-29T13:33:50;32.53;;;18.70;;
22111;SDS011;11222;50.872;4.312;2023-01-29T13:36:24;32.85;;;18.42;;
22111;SDS011;11222;50.872;4.312;2023-01-29T13:39:00;34.47;;;19.15;;
22111;SDS011;11222;50.872;4.312;2023-01-29T13:41:38;30.38;;;17.63;;
22111;SDS011;11222;50.872;4.312;2023-01-29T13:44:23;32.05;;;18.10;;
22111;SDS011;11222;50.872;4.312;2023-01-29T13:47:10;31.00;;;18.23;;
22111;SDS011;11222;50.872;4.312;2023-01-29T13:50:01;33.10;;;18.83;;
22111;SDS011;11222;50.872;4.312;2023-01-29T14:00:55;34.72;;;18.42;;
22111;SDS011;11222;50.872;4.312;2023-01-29T14:10:34;33.85;;;20.02;;
22111;SDS011;11222;50.872;4.312;2023-01-29T14:18:24;37.85;;;20.55;;
22111;SDS011;11222;50.872;4.312;2023-01-29T14:21:25;36.72;;;19.92;;
22111;SDS011;11222;50.872;4.312;2023-01-29T14:23:49;34.47;;;19.25;;
22111;SDS011;11222;50.872;4.312;2023-01-29T14:26:29;35.33;;;20.55;;
22111;SDS011;11222;50.872;4.312;2023-01-29T14:29:02;36.60;;;19.55;;
22111;SDS011;11222;50.872;4.312;2023-01-29T14:36:57;36.22;;;20.73;;
22111;SDS011;11222;50.872;4.312;2023-01-29T14:39:49;34.70;;;20.17;;
22111;SDS011;11222;50.872;4.312;2023-01-29T14:42:33;35.03;;;20.52;;
22111;SDS011;11222;50.872;4.312;2023-01-29T14:52:53;34.70;;;21.13;;
22111;SDS011;11222;50.872;4.312;2023-01-29T14:55:37;36.40;;;20.65;;
22111;SDS011;11222;50.872;4.312;2023-01-29T15:00:57;35.53;;;19.50;;
22111;SDS011;11222;50.872;4.312;2023-01-29T15:06:02;34.85;;;20.38;;
22111;SDS011;11222;50.872;4.312;2023-01-29T15:09:33;35.17;;;21.60;;
22111;SDS011;11222;50.872;4.312;2023-01-29T15:11:46;37.97;;;21.05;;
22111;SDS011;11222;50.872;4.312;2023-01-29T15:14:28;33.95;;;20.30;;
22111;SDS011;11222;50.872;4.312;2023-01-29T15:17:05;36.45;;;19.75;;
22111;SDS011;11222;50.872;4.312;2023-01-29T15:19:47;42.35;;;22.67;;
22111;SDS011;11222;50.872;4.312;2023-01-29T15:22:17;38.47;;;21.95;;
22111;SDS011;11222;50.872;4.312;2023-01-29T15:24:45;35.97;;;21.65;;
22111;SDS011;11222;50.872;4.312;2023-01-29T15:27:26;42.08;;;22.63;;
22111;SDS011;11222;50.872;4.312;2023-01-29T15:29:56;40.25;;;23.35;;
22111;SDS011;11222;50.872;4.312;2023-01-29T15:32:26;38.53;;;21.92;;
22111;SDS011;11222;50.872;4.312;2023-01-29T15:35:10;39.95;;;22.35;;
22111;SDS011;11222;50.872;4.312;2023-01-29T15:37:41;42.25;;;21.52;;
22111;SDS011;11222;50.872;4.312;2023-01-29T15:40:11;35.90;;;20.77;;
22111;SDS011;11222;50.872;4.312;2023-01-29T15:42:44;35.28;;;22.02;;
22111;SDS011;11222;50.872;4.312;2023-01-29T15:48:11;38.35;;;22.05;;
22111;SDS011;11222;50.872;4.312;2023-01-29T15:50:41;36.57;;;21.80;;
22111;SDS011;11222;50.872;4.312;2023-01-29T15:53:12;41.08;;;22.02;;
22111;SDS011;11222;50.872;4.312;2023-01-29T15:55:42;34.90;;;20.88;;
22111;SDS011;11222;50.872;4.312;2023-01-29T15:58:15;38.50;;;21.85;;
22111;SDS011;11222;50.872;4.312;2023-01-29T16:00:53;38.65;;;21.48;;
22111;SDS011;11222;50.872;4.312;2023-01-29T16:03:21;37.10;;;20.48;;
22111;SDS011;11222;50.872;4.312;2023-01-29T16:05:48;52.35;;;27.63;;
22111;SDS011;11222;50.872;4.312;2023-01-29T16:08:15;38.30;;;20.08;;
22111;SDS011;11222;50.872;4.312;2023-01-29T16:10:44;36.05;;;20.77;;
22111;SDS011;11222;50.872;4.312;2023-01-29T16:13:21;33.90;;;19.63;;
22111;SDS011;11222;50.872;4.312;2023-01-29T16:18:23;34.50;;;20.05;;
22111;SDS011;11222;50.872;4.312;2023-01-29T16:20:53;32.28;;;19.83;;
22111;SDS011;11222;50.872;4.312;2023-01-29T16:23:23;40.88;;;21.48;;
22111;SDS011;11222;50.872;4.312;2023-01-29T16:25:51;35.10;;;19.33;;
22111;SDS011;11222;50.872;4.312;2023-01-29T16:28:19;38.05;;;19.88;;
22111;SDS011;11222;50.872;4.312;2023-01-29T16:30:45;37.28;;;20.05;;
22111;SDS011;11222;50.872;4.312;2023-01-29T16:33:14;36.60;;;19.05;;
22111;SDS011;11222;50.872;4.312;2023-01-29T16:35:41;34.55;;;19.95;;
22111;SDS011;11222;50.872;4.312;2023-01-29T16:38:25;34.20;;;19.80;;
22111;SDS011;11222;50.872;4.312;2023-01-29T16:43:45;36.67;;;20.13;;
22111;SDS011;11222;50.872;4.312;2023-01-29T16:48:44;37.35;;;21.25;;
22111;SDS011;11222;50.872;4.312;2023-01-29T16:51:57;36.17;;;18.67;;
22111;SDS011;11222;50.872;4.312;2023-01-29T16:54:20;38.78;;;20.98;;
22111;SDS011;11222;50.872;4.312;2023-01-29T16:56:49;35.38;;;19.50;;
22111;SDS011;11222;50.872;4.312;2023-01-29T16:59:32;37.05;;;19.33;;
22111;SDS011;11222;50.872;4.312;2023-01-29T17:02:00;37.42;;;19.88;;
22111;SDS011;11222;50.872;4.312;2023-01-29T17:04:28;41.67;;;22.17;;
22111;SDS011;11222;50.872;4.312;2023-01-29T17:06:56;37.15;;;20.38;;
22111;SDS011;11222;50.872;4.312;2023-01-29T17:12:05;35.30;;;19.52;;
22111;SDS011;11222;50.872;4.312;2023-01-29T17:14:33;36.83;;;20.95;;
22111;SDS011;11222;50.872;4.312;2023-01-29T17:17:06;41.75;;;23.52;;
22111;SDS011;11222;50.872;4.312;2023-01-29T17:19:39;36.08;;;20.63;;
22111;SDS011;11222;50.872;4.312;2023-01-29T17:22:05;35.63;;;20.40;;
22111;SDS011;11222;50.872;4.312;2023-01-29T17:24:33;38.80;;;20.92;;
22111;SDS011;11222;50.872;4.312;2023-01-29T17:27:01;42.88;;;21.85;;
22111;SDS011;11222;50.872;4.312;2023-01-29T17:29:28;39.63;;;21.85;;
22111;SDS011;11222;50.872;4.312;2023-01-29T17:31:55;34.80;;;19.98;;
22111;SDS011;11222;50.872;4.312;2023-01-29T17:34:24;40.13;;;21.48;;